Time;durP1;ratioP1;P1;durP2;ratioP2;P2;SDS_P1;SDS_P2;PMS_P1;PMS_P2;Temp;Humidity;BMP_temperature;BMP_pressure;BME280_temperature;BME280_humidity;BME280_pressure;Samples;Min_cycle;Max_cycle;Signal;HPM_P1;HPM_P2
2023/09/19 00:01:19;;;;;;;5.63;3.63;;;15.80;99.90;;;;;;4196652;28;20484;-58
2023/09/19 00:03:22;;;;;;;7.00;4.28;;;15.80;99.90;;;;;;4194635;28;20106;-59
2023/09/19 00:05:25;;;;;;;6.25;4.20;;;15.80;99.90;;;;;;4195614;28;20496;-59
2023/09/19 00:07:26;;;;;;;5.10;3.92;;;15.80;99.90;;;;;;4194311;28;20041;-57
2023/09/19 00:09:27;;;;;;;4.93;3.90;;;15.80;99.90;;;;;;4194532;28;20071;-58
2023/09/19 00:11:28;;;;;;;4.43;3.63;;;15.80;99.90;;;;;;4194815;28;20024;-58
2023/09/19 00:13:30;;;;;;;7.43;4.45;;;15.80;99.90;;;;;;4193891;28;20044;-59
2023/09/19 00:15:38;;;;;;;5.57;3.80;;;15.90;99.90;;;;;;4195404;28;20024;-56
2023/09/19 00:17:40;;;;;;;14.15;4.07;;;15.80;99.90;;;;;;4194051;28;20041;-59
2023/09/19 00:19:42;;;;;;;4.72;4.25;;;15.90;99.90;;;;;;4195827;28;20090;-59
2023/09/19 00:21:45;;;;;;;8.00;4.85;;;15.90;99.90;;;;;;4192710;28;20851;-59
2023/09/19 00:23:47;;;;;;;5.72;3.42;;;15.90;99.90;;;;;;4194524;28;20044;-59
2023/09/19 00:25:50;;;;;;;6.28;4.50;;;16.00;99.90;;;;;;4176471;28;20087;-59
2023/09/19 00:27:52;;;;;;;8.30;4.35;;;16.00;99.90;;;;;;4195827;28;20078;-59
2023/09/19 00:29:53;;;;;;;4.28;3.88;;;16.10;99.90;;;;;;4193891;28;20438;-59
2023/09/19 00:31:54;;;;;;;5.20;3.90;;;16.10;99.90;;;;;;4195288;28;20040;-58
2023/09/19 00:33:59;;;;;;;5.88;4.28;;;16.10;99.90;;;;;;4193323;28;20182;-59
2023/09/19 00:36:04;;;;;;;4.60;4.13;;;16.10;99.90;;;;;;4194928;28;20082;-58
2023/09/19 00:38:06;;;;;;;5.75;4.03;;;16.00;99.90;;;;;;4176901;28;20527;-59
2023/09/19 00:40:12;;;;;;;5.95;3.85;;;16.00;99.90;;;;;;4195438;28;20055;-54
2023/09/19 00:42:20;;;;;;;6.85;4.13;;;16.00;99.90;;;;;;4194614;28;20033;-60
2023/09/19 00:44:23;;;;;;;5.38;4.38;;;16.00;99.90;;;;;;4195775;28;20024;-60
2023/09/19 00:46:25;;;;;;;4.18;3.70;;;16.00;99.90;;;;;;4193632;28;20044;-58
2023/09/19 00:48:28;;;;;;;8.60;3.83;;;16.00;99.90;;;;;;4176983;28;20115;-61
2023/09/19 00:50:32;;;;;;;11.93;4.43;;;15.90;99.90;;;;;;4194323;28;20040;-59
2023/09/19 00:52:36;;;;;;;4.78;3.83;;;15.90;99.90;;;;;;4194822;28;20025;-58
2023/09/19 00:54:37;;;;;;;5.30;4.47;;;16.00;99.90;;;;;;4193578;28;20052;-58
2023/09/19 00:56:40;;;;;;;6.05;3.80;;;16.10;99.90;;;;;;4194727;28;20028;-59
2023/09/19 00:58:41;;;;;;;7.00;4.07;;;16.10;99.90;;;;;;4195107;28;20020;-59
2023/09/19 01:00:44;;;;;;;5.57;4.10;;;16.10;99.90;;;;;;4193146;28;20106;-58
2023/09/19 01:02:46;;;;;;;7.35;4.13;;;16.10;99.90;;;;;;4194700;28;20052;-57
2023/09/19 01:04:48;;;;;;;6.43;4.18;;;16.10;99.90;;;;;;4193057;28;20040;-59
2023/09/19 01:06:53;;;;;;;8.88;3.97;;;16.10;99.90;;;;;;4193875;28;20044;-58
2023/09/19 01:08:55;;;;;;;5.25;3.65;;;16.10;99.90;;;;;;4189681;28;20054;-57
2023/09/19 01:11:03;;;;;;;5.75;3.72;;;16.10;99.90;;;;;;4194729;28;20040;-57
2023/09/19 01:13:12;;;;;;;7.57;3.65;;;16.10;99.90;;;;;;4193271;28;20443;-58
2023/09/19 01:15:16;;;;;;;5.55;3.95;;;16.10;99.90;;;;;;4194648;28;20029;-58
2023/09/19 01:17:30;;;;;;;6.40;4.55;;;16.10;99.90;;;;;;4191717;28;20040;-61
2023/09/19 01:20:02;;;;;;;8.10;3.95;;;16.10;99.90;;;;;;4193016;28;20208;-59
2023/09/19 01:22:06;;;;;;;5.55;3.25;;;16.10;99.90;;;;;;4192358;28;20036;-58
2023/09/19 01:24:26;;;;;;;5.35;3.55;;;16.10;99.90;;;;;;4193330;28;20048;-60
2023/09/19 01:26:42;;;;;;;10.90;3.60;;;16.10;99.90;;;;;;4192717;28;20037;-60
2023/09/19 01:28:57;;;;;;;6.53;4.03;;;16.10;99.90;;;;;;4194760;28;20443;-58
2023/09/19 01:31:01;;;;;;;5.82;3.70;;;16.10;99.90;;;;;;4193546;28;20058;-58
2023/09/19 01:33:04;;;;;;;6.53;3.95;;;16.10;99.90;;;;;;4195211;28;20032;-58
2023/09/19 01:35:06;;;;;;;6.55;3.08;;;16.10;99.90;;;;;;4192616;28;20044;-58
2023/09/19 01:37:07;;;;;;;4.25;3.70;;;16.00;99.90;;;;;;4182166;28;20090;-58
2023/09/19 01:39:13;;;;;;;6.32;4.00;;;16.00;99.90;;;;;;4193066;28;20062;-56
2023/09/19 01:41:21;;;;;;;4.07;3.35;;;16.00;99.90;;;;;;4193731;28;20106;-58
2023/09/19 01:43:35;;;;;;;4.28;3.35;;;16.00;99.90;;;;;;4192435;28;20389;-61
2023/09/19 01:45:49;;;;;;;7.55;2.97;;;16.00;99.90;;;;;;4176905;28;20444;-61
2023/09/19 01:47:56;;;;;;;4.63;3.13;;;15.90;99.90;;;;;;4193034;28;20430;-59
2023/09/19 01:50:06;;;;;;;5.60;4.43;;;15.90;99.90;;;;;;4194641;28;20452;-59
2023/09/19 01:52:13;;;;;;;;;;;15.90;99.90;;;;;;4192870;28;20036;-59
2023/09/19 01:54:24;;;;;;;4.18;3.67;;;15.90;99.90;;;;;;4193696;28;19953;-60
2023/09/19 01:56:35;;;;;;;5.13;3.55;;;15.90;99.90;;;;;;4193582;28;21061;-60
2023/09/19 01:58:42;;;;;;;4.47;3.53;;;15.90;99.90;;;;;;4194367;28;20077;-61
2023/09/19 02:00:47;;;;;;;6.45;3.90;;;15.90;99.90;;;;;;4192133;28;20395;-61
2023/09/19 02:02:49;;;;;;;7.32;3.90;;;15.90;99.90;;;;;;4194596;28;20111;-61
2023/09/19 02:04:50;;;;;;;6.60;4.47;;;15.90;99.90;;;;;;4192405;28;20109;-62
2023/09/19 02:06:51;;;;;;;8.15;3.63;;;15.90;99.90;;;;;;4192734;28;20451;-61
2023/09/19 02:08:54;;;;;;;9.57;3.90;;;15.90;99.90;;;;;;4192722;28;20036;-60
2023/09/19 02:10:55;;;;;;;4.45;3.58;;;15.90;99.90;;;;;;4193485;28;20041;-61
2023/09/19 02:12:56;;;;;;;4.72;3.80;;;15.80;99.90;;;;;;4192536;28;20091;-61
2023/09/19 02:14:58;;;;;;;6.50;4.40;;;15.90;99.90;;;;;;4193164;28;20462;-61
2023/09/19 02:17:00;;;;;;;5.30;3.95;;;15.90;99.90;;;;;;4192532;28;20032;-61
2023/09/19 02:19:05;;;;;;;4.40;3.97;;;15.90;99.90;;;;;;4192168;28;20040;-61
2023/09/19 02:21:12;;;;;;;4.32;3.60;;;15.90;99.90;;;;;;4192743;28;20048;-60
2023/09/19 02:23:13;;;;;;;5.65;3.90;;;15.90;99.90;;;;;;4193213;28;20049;-61
2023/09/19 02:25:15;;;;;;;4.07;3.35;;;15.90;99.90;;;;;;4192478;28;20052;-60
2023/09/19 02:27:17;;;;;;;4.32;3.53;;;15.90;99.90;;;;;;4182717;28;20468;-60
2023/09/19 02:29:18;;;;;;;4.35;3.55;;;15.90;99.90;;;;;;4193753;28;20059;-58
2023/09/19 02:31:19;;;;;;;4.63;4.07;;;15.90;99.90;;;;;;4192117;28;20044;-60
2023/09/19 02:33:21;;;;;;;8.60;3.72;;;15.90;99.90;;;;;;4193697;28;20547;-61
2023/09/19 02:35:22;;;;;;;4.57;3.78;;;15.80;99.90;;;;;;4192794;28;20158;-51
2023/09/19 02:37:23;;;;;;;4.53;3.50;;;15.80;99.90;;;;;;4192695;28;20040;-62
2023/09/19 02:39:24;;;;;;;6.18;4.13;;;15.80;99.90;;;;;;4191367;28;20556;-61
2023/09/19 02:41:25;;;;;;;6.00;4.03;;;15.80;99.90;;;;;;4194010;28;20024;-61
2023/09/19 02:43:27;;;;;;;7.20;4.25;;;15.80;99.90;;;;;;4192055;28;20032;-61
2023/09/19 02:45:29;;;;;;;7.43;3.78;;;15.80;99.90;;;;;;4193983;28;20052;-60
2023/09/19 02:47:31;;;;;;;5.38;3.85;;;15.80;99.90;;;;;;4174592;28;20075;-61
2023/09/19 02:49:32;;;;;;;4.20;3.30;;;15.70;99.90;;;;;;4175482;28;20110;-59
2023/09/19 02:51:34;;;;;;;5.30;3.75;;;15.80;99.90;;;;;;4192256;28;20040;-60
2023/09/19 02:53:35;;;;;;;5.45;4.00;;;15.70;99.90;;;;;;4191915;28;20049;-60
2023/09/19 02:55:38;;;;;;;7.63;3.88;;;15.70;99.90;;;;;;4191907;28;20090;-61
2023/09/19 02:57:42;;;;;;;8.75;3.65;;;15.70;99.90;;;;;;4193897;28;20040;-61
2023/09/19 02:59:44;;;;;;;6.53;4.07;;;15.60;99.90;;;;;;4189444;28;20029;-58
2023/09/19 03:01:47;;;;;;;5.68;4.00;;;15.60;99.90;;;;;;4193336;28;20476;-61
2023/09/19 03:03:49;;;;;;;5.07;3.65;;;15.60;99.90;;;;;;4196585;28;20053;-55
2023/09/19 03:05:51;;;;;;;8.35;4.00;;;15.60;99.90;;;;;;4195228;28;20469;-60
2023/09/19 03:07:52;;;;;;;4.80;3.70;;;15.60;99.90;;;;;;4195845;28;20110;-61
2023/09/19 03:09:55;;;;;;;4.70;3.72;;;15.60;99.90;;;;;;4195860;28;20032;-58
2023/09/19 03:11:56;;;;;;;7.55;4.57;;;15.60;99.90;;;;;;4195545;28;20048;-58
2023/09/19 03:13:58;;;;;;;5.32;4.63;;;15.60;99.90;;;;;;4194104;28;20056;-61
2023/09/19 03:15:59;;;;;;;5.97;4.13;;;15.60;99.90;;;;;;4196542;28;20040;-61
2023/09/19 03:18:00;;;;;;;4.28;3.65;;;15.60;99.90;;;;;;4195058;28;20701;-60
2023/09/19 03:20:04;;;;;;;6.72;4.03;;;15.60;99.90;;;;;;4195697;28;20468;-59
2023/09/19 03:22:05;;;;;;;7.05;4.10;;;15.60;99.90;;;;;;4195517;28;20033;-59
2023/09/19 03:24:06;;;;;;;5.40;3.90;;;15.60;99.90;;;;;;4195465;28;20052;-62
2023/09/19 03:26:08;;;;;;;5.70;3.90;;;15.60;99.90;;;;;;4195427;28;20740;-58
2023/09/19 03:28:09;;;;;;;4.57;3.63;;;15.60;99.90;;;;;;4195100;28;20445;-58
2023/09/19 03:30:13;;;;;;;4.97;3.97;;;15.60;99.90;;;;;;4196057;28;20037;-55
2023/09/19 03:32:15;;;;;;;6.65;3.70;;;15.60;99.90;;;;;;4190503;28;20098;-58
2023/09/19 03:34:16;;;;;;;6.07;4.38;;;15.60;99.90;;;;;;4196286;28;20359;-59
2023/09/19 03:36:17;;;;;;;7.53;3.72;;;15.60;99.90;;;;;;4195384;28;20489;-60
2023/09/19 03:38:19;;;;;;;4.75;3.65;;;15.60;99.90;;;;;;4194896;28;20048;-60
2023/09/19 03:40:21;;;;;;;6.50;4.85;;;15.60;99.90;;;;;;4195288;28;20044;-60
2023/09/19 03:42:25;;;;;;;7.18;4.10;;;15.60;99.90;;;;;;4195676;28;20098;-52
2023/09/19 03:44:26;;;;;;;5.30;3.97;;;15.60;99.90;;;;;;4195342;28;20086;-58
2023/09/19 03:46:28;;;;;;;6.78;4.50;;;15.60;99.90;;;;;;4195543;28;20190;-60
2023/09/19 03:48:29;;;;;;;4.95;3.60;;;15.60;99.90;;;;;;4194952;28;20036;-60
2023/09/19 03:50:30;;;;;;;7.07;3.70;;;15.70;99.90;;;;;;4196539;28;20498;-61
2023/09/19 03:52:31;;;;;;;7.40;3.72;;;15.70;99.90;;;;;;4195436;28;20680;-59
2023/09/19 03:54:32;;;;;;;8.07;4.13;;;15.70;99.90;;;;;;4196012;28;20081;-60
2023/09/19 03:56:34;;;;;;;5.72;4.15;;;15.70;99.90;;;;;;4195348;28;20078;-59
2023/09/19 03:58:39;;;;;;;5.30;3.97;;;15.70;99.90;;;;;;4194961;28;20090;-60
2023/09/19 04:00:40;;;;;;;6.45;4.00;;;15.70;99.90;;;;;;4193885;28;20052;-59
2023/09/19 04:02:41;;;;;;;9.68;3.88;;;15.70;99.90;;;;;;4195465;28;20033;-60
2023/09/19 04:04:42;;;;;;;4.80;3.65;;;15.70;99.90;;;;;;4196737;28;20078;-59
2023/09/19 04:06:43;;;;;;;6.15;3.83;;;15.70;99.90;;;;;;4193879;28;20434;-59
2023/09/19 04:08:46;;;;;;;6.10;3.72;;;15.70;99.90;;;;;;4193939;28;20041;-60
2023/09/19 04:10:47;;;;;;;5.75;4.03;;;15.70;99.90;;;;;;4193989;28;20067;-59
2023/09/19 04:12:55;;;;;;;5.57;3.55;;;15.70;99.90;;;;;;4195085;28;20036;-60
2023/09/19 04:14:56;;;;;;;10.70;4.05;;;15.70;99.90;;;;;;4194975;28;20024;-59
2023/09/19 04:16:57;;;;;;;5.93;4.20;;;15.60;99.90;;;;;;4194603;28;20447;-61
2023/09/19 04:18:58;;;;;;;7.65;3.83;;;15.60;99.90;;;;;;4193849;28;20037;-61
2023/09/19 04:21:03;;;;;;;8.90;3.95;;;15.60;99.90;;;;;;4194348;28;20048;-61
2023/09/19 04:23:05;;;;;;;6.82;3.90;;;15.70;99.90;;;;;;4188913;28;20049;-61
2023/09/19 04:25:06;;;;;;;10.30;4.50;;;15.70;99.90;;;;;;4195933;28;20098;-61
2023/09/19 04:27:09;;;;;;;6.03;3.92;;;15.70;99.90;;;;;;4194502;28;20074;-60
2023/09/19 04:29:13;;;;;;;6.82;3.88;;;15.70;99.90;;;;;;4194475;28;20045;-61
2023/09/19 04:31:14;;;;;;;7.85;4.47;;;15.70;99.90;;;;;;4194628;28;20434;-62
2023/09/19 04:33:15;;;;;;;6.65;3.63;;;15.70;99.90;;;;;;4195132;28;20074;-61
2023/09/19 04:35:17;;;;;;;6.50;4.18;;;15.70;99.90;;;;;;4195381;28;20462;-62
2023/09/19 04:37:18;;;;;;;10.02;4.30;;;15.70;99.90;;;;;;4194386;28;20032;-62
2023/09/19 04:39:19;;;;;;;9.90;4.22;;;15.70;99.90;;;;;;4194968;28;20032;-61
2023/09/19 04:41:20;;;;;;;6.43;3.95;;;15.80;99.90;;;;;;4190728;28;20403;-56
2023/09/19 04:43:21;;;;;;;9.80;3.78;;;15.80;99.90;;;;;;4193936;28;20037;-60
2023/09/19 04:45:29;;;;;;;8.48;4.43;;;15.80;99.90;;;;;;4193188;28;20044;-61
2023/09/19 04:47:30;;;;;;;5.32;4.03;;;15.70;99.90;;;;;;4195150;28;20094;-61
2023/09/19 04:49:31;;;;;;;8.15;4.40;;;15.70;99.90;;;;;;4193203;28;20037;-61
2023/09/19 04:51:34;;;;;;;6.28;4.10;;;15.70;99.90;;;;;;4194352;28;20067;-61
2023/09/19 04:53:35;;;;;;;5.80;4.20;;;15.70;99.90;;;;;;4184100;28;20048;-61
2023/09/19 04:55:36;;;;;;;8.40;3.97;;;15.70;99.90;;;;;;4194086;28;20439;-61
2023/09/19 04:57:38;;;;;;;7.05;4.22;;;15.70;99.90;;;;;;4194002;28;20091;-63
2023/09/19 04:59:41;;;;;;;12.23;4.50;;;15.70;99.90;;;;;;4195371;28;20016;-63
2023/09/19 05:01:42;;;;;;;7.43;4.13;;;15.70;99.90;;;;;;4192472;28;20041;-62
2023/09/19 05:03:45;;;;;;;13.93;4.32;;;15.80;99.90;;;;;;4193885;28;20082;-62
2023/09/19 05:05:46;;;;;;;7.35;4.22;;;15.70;99.90;;;;;;4194182;28;20361;-58
2023/09/19 05:07:47;;;;;;;9.68;3.92;;;15.80;99.90;;;;;;4193309;28;20094;-61
2023/09/19 05:09:48;;;;;;;11.60;4.45;;;15.70;99.90;;;;;;4194254;28;20426;-60
2023/09/19 05:11:51;;;;;;;7.38;4.57;;;15.80;99.90;;;;;;4194114;28;20029;-61
2023/09/19 05:13:55;;;;;;;12.38;4.78;;;15.80;99.90;;;;;;4193585;28;20114;-61
2023/09/19 05:16:02;;;;;;;5.68;3.63;;;15.80;99.90;;;;;;4192445;28;20378;-60
2023/09/19 05:18:05;;;;;;;6.03;3.75;;;15.90;99.90;;;;;;4194816;28;20044;-61
2023/09/19 05:20:16;;;;;;;8.50;4.18;;;15.90;99.90;;;;;;4192154;28;20052;-58
2023/09/19 05:22:18;;;;;;;9.95;4.35;;;15.90;99.90;;;;;;4194238;28;20036;-61
2023/09/19 05:24:19;;;;;;;13.00;4.90;;;16.00;99.90;;;;;;4192395;28;20378;-61
2023/09/19 05:26:20;;;;;;;11.15;4.60;;;16.00;99.90;;;;;;4194926;28;20036;-62
2023/09/19 05:28:22;;;;;;;8.98;5.25;;;16.00;99.90;;;;;;4193610;28;20032;-61
2023/09/19 05:30:23;;;;;;;7.82;4.72;;;16.00;99.90;;;;;;4193743;28;20036;-61
2023/09/19 05:32:24;;;;;;;7.90;4.60;;;16.00;99.90;;;;;;4193585;28;20025;-61
2023/09/19 05:34:30;;;;;;;8.40;4.53;;;16.10;99.90;;;;;;4194595;28;20380;-61
2023/09/19 05:36:31;;;;;;;9.57;4.88;;;16.10;99.90;;;;;;4192732;28;20810;-61
2023/09/19 05:38:32;;;;;;;8.32;4.15;;;16.10;99.90;;;;;;4193095;28;20109;-62
2023/09/19 05:40:34;;;;;;;7.47;4.57;;;16.10;99.90;;;;;;4193372;28;21131;-63
2023/09/19 05:42:35;;;;;;;8.68;4.38;;;16.10;99.90;;;;;;4193088;28;20110;-61
2023/09/19 05:44:36;;;;;;;7.40;3.58;;;16.20;99.90;;;;;;4193551;28;20032;-58
2023/09/19 05:46:38;;;;;;;7.03;3.88;;;16.20;99.90;;;;;;4193645;28;20040;-61
2023/09/19 05:48:41;;;;;;;8.70;3.95;;;16.30;99.90;;;;;;4193191;28;20075;-63
2023/09/19 05:50:42;;;;;;;7.82;4.20;;;16.30;99.90;;;;;;4193188;28;20427;-62
2023/09/19 05:52:44;;;;;;;9.32;3.65;;;16.30;99.90;;;;;;4175989;28;20041;-61
2023/09/19 05:54:45;;;;;;;9.30;4.57;;;16.40;99.90;;;;;;4174600;28;20037;-62
2023/09/19 05:56:47;;;;;;;9.57;5.57;;;16.40;99.90;;;;;;4194329;28;20498;-61
2023/09/19 05:58:49;;;;;;;9.05;4.40;;;16.40;99.90;;;;;;4192086;28;20048;-62
2023/09/19 06:00:50;;;;;;;9.90;4.05;;;16.50;99.90;;;;;;4193508;28;20089;-62
2023/09/19 06:02:57;;;;;;;7.53;4.45;;;16.50;99.90;;;;;;4193159;28;20392;-62
2023/09/19 06:04:58;;;;;;;7.63;4.25;;;16.50;99.90;;;;;;4194442;28;20032;-62
2023/09/19 06:07:00;;;;;;;6.80;3.78;;;16.50;99.90;;;;;;4192421;28;20110;-63
2023/09/19 06:09:02;;;;;;;9.23;4.10;;;16.50;99.90;;;;;;4194071;28;20349;-63
2023/09/19 06:11:05;;;;;;;8.05;3.90;;;16.50;99.90;;;;;;4192932;28;20062;-61
2023/09/19 06:13:09;;;;;;;10.25;4.13;;;16.50;99.90;;;;;;4193812;28;20032;-63
2023/09/19 06:15:23;;;;;;;7.80;4.30;;;16.60;99.90;;;;;;4192968;28;20029;-62
2023/09/19 06:17:24;;;;;;;11.60;5.18;;;16.70;99.90;;;;;;4193087;28;20529;-64
2023/09/19 06:19:25;;;;;;;11.18;4.85;;;16.70;99.90;;;;;;4175027;28;20032;-62
2023/09/19 06:21:32;;;;;;;14.93;4.50;;;16.70;99.90;;;;;;4192433;28;20075;-63
2023/09/19 06:23:35;;;;;;;9.48;4.65;;;16.80;99.90;;;;;;4191975;28;20094;-62
2023/09/19 06:25:36;;;;;;;14.07;4.75;;;16.80;99.90;;;;;;4193154;28;20028;-63
2023/09/19 06:27:44;;;;;;;6.28;3.60;;;16.80;99.90;;;;;;4193685;28;20423;-63
2023/09/19 06:29:45;;;;;;;6.50;3.55;;;16.90;99.90;;;;;;4193379;28;20484;-63
2023/09/19 06:31:47;;;;;;;9.18;5.25;;;16.90;99.90;;;;;;4192870;28;20021;-62
2023/09/19 06:33:48;;;;;;;14.35;4.45;;;16.90;99.90;;;;;;4192630;28;20032;-61
2023/09/19 06:35:53;;;;;;;8.65;3.50;;;17.00;99.90;;;;;;4194214;28;20101;-62
2023/09/19 06:37:57;;;;;;;6.28;3.67;;;17.10;99.90;;;;;;4192336;28;20020;-62
2023/09/19 06:39:58;;;;;;;7.55;4.32;;;17.10;99.90;;;;;;4173657;28;20044;-62
2023/09/19 06:42:01;;;;;;;6.32;4.35;;;17.10;99.90;;;;;;4191797;28;20086;-61
2023/09/19 06:44:05;;;;;;;6.72;3.95;;;17.10;99.90;;;;;;4193926;28;20165;-60
2023/09/19 06:46:07;;;;;;;10.85;4.10;;;17.10;99.90;;;;;;4191843;28;20036;-60
2023/09/19 06:48:09;;;;;;;7.13;4.13;;;17.10;99.90;;;;;;4192727;28;20029;-61
2023/09/19 06:50:13;;;;;;;5.50;3.80;;;17.20;99.90;;;;;;4192544;28;20477;-59
2023/09/19 06:52:15;;;;;;;7.28;4.10;;;17.20;99.90;;;;;;4193873;28;20099;-62
2023/09/19 06:54:17;;;;;;;7.10;4.15;;;17.30;99.90;;;;;;4192193;28;20496;-60
2023/09/19 06:56:19;;;;;;;6.15;2.97;;;17.40;99.90;;;;;;4175774;28;20071;-61
2023/09/19 06:58:20;;;;;;;12.40;5.85;;;17.50;99.90;;;;;;4192947;28;20025;-62
2023/09/19 07:00:25;;;;;;;11.85;7.43;;;17.50;99.90;;;;;;4192136;28;20041;-62
2023/09/19 07:02:26;;;;;;;11.85;5.75;;;17.60;99.90;;;;;;4192921;28;20086;-61
2023/09/19 07:04:27;;;;;;;7.78;4.50;;;17.70;99.90;;;;;;4191972;28;20543;-62
2023/09/19 07:06:28;;;;;;;9.57;5.35;;;17.80;99.90;;;;;;4192871;28;20109;-62
2023/09/19 07:08:30;;;;;;;9.95;5.10;;;17.90;99.90;;;;;;4192121;28;20046;-63
2023/09/19 07:10:32;;;;;;;8.50;5.30;;;18.00;99.90;;;;;;4193328;28;20024;-61
2023/09/19 07:12:33;;;;;;;8.82;5.40;;;18.00;99.90;;;;;;4191378;28;20048;-60
2023/09/19 07:14:34;;;;;;;9.63;5.65;;;18.00;99.90;;;;;;4192253;28;20090;-61
2023/09/19 07:16:35;;;;;;;7.15;4.43;;;18.10;99.90;;;;;;4192284;28;20032;-60
2023/09/19 07:18:37;;;;;;;5.30;3.42;;;18.10;99.90;;;;;;4193442;28;20082;-61
2023/09/19 07:20:38;;;;;;;8.98;3.78;;;18.10;99.90;;;;;;4191476;28;20404;-61
2023/09/19 07:22:39;;;;;;;7.80;4.00;;;18.10;99.90;;;;;;4193532;28;20036;-60
2023/09/19 07:24:40;;;;;;;6.65;4.00;;;18.20;99.90;;;;;;4191073;28;20106;-60
2023/09/19 07:26:41;;;;;;;8.65;4.25;;;18.20;99.90;;;;;;4193281;28;20128;-60
2023/09/19 07:28:43;;;;;;;8.23;3.63;;;18.10;99.90;;;;;;4192531;28;20024;-61
2023/09/19 07:30:44;;;;;;;8.07;3.50;;;18.20;99.90;;;;;;4192130;28;20446;-62
2023/09/19 07:32:45;;;;;;;4.22;3.17;;;18.20;99.90;;;;;;4192644;28;20029;-61
2023/09/19 07:34:46;;;;;;;5.50;3.60;;;18.20;99.90;;;;;;4191898;28;20041;-61
2023/09/19 07:36:47;;;;;;;6.43;4.15;;;18.10;99.90;;;;;;4193576;28;20040;-62
2023/09/19 07:38:48;;;;;;;5.15;3.20;;;18.10;99.90;;;;;;4190952;28;20496;-61
2023/09/19 07:40:50;;;;;;;5.70;3.78;;;18.10;99.90;;;;;;4192564;28;20052;-63
2023/09/19 07:42:51;;;;;;;4.15;3.53;;;18.10;99.90;;;;;;4191368;28;20607;-61
2023/09/19 07:44:53;;;;;;;4.95;2.92;;;18.10;99.90;;;;;;4195393;28;20040;-62
2023/09/19 07:46:54;;;;;;;9.95;4.70;;;18.10;99.90;;;;;;4195148;28;20059;-61
2023/09/19 07:48:55;;;;;;;5.88;3.20;;;18.10;99.90;;;;;;4196094;28;20536;-62
2023/09/19 07:51:02;;;;;;;8.02;3.13;;;18.10;99.90;;;;;;4194414;28;20132;-61
2023/09/19 07:53:04;;;;;;;5.63;3.47;;;18.10;99.90;;;;;;4195129;28;20048;-62
2023/09/19 07:55:11;;;;;;;5.28;3.80;;;18.10;99.90;;;;;;4193825;28;20044;-60
2023/09/19 07:57:12;;;;;;;10.98;4.00;;;18.00;99.90;;;;;;4196167;28;20040;-63
2023/09/19 07:59:13;;;;;;;15.93;3.58;;;17.90;99.90;;;;;;4193738;28;20098;-62
2023/09/19 08:01:16;;;;;;;7.95;4.50;;;17.80;99.90;;;;;;4195544;28;20074;-62
2023/09/19 08:03:18;;;;;;;6.35;3.80;;;17.80;99.90;;;;;;4195222;28;20013;-61
2023/09/19 08:05:20;;;;;;;9.75;3.88;;;17.70;99.90;;;;;;4195840;28;20024;-62
2023/09/19 08:07:23;;;;;;;6.80;4.55;;;17.60;99.90;;;;;;4195632;28;20024;-61
2023/09/19 08:09:24;;;;;;;7.25;4.85;;;17.50;99.90;;;;;;4194329;28;20085;-60
2023/09/19 08:11:25;;;;;;;6.20;4.47;;;17.50;99.90;;;;;;4195650;28;20091;-62
2023/09/19 08:13:26;;;;;;;7.05;4.38;;;17.40;99.90;;;;;;4194473;28;20186;-62
2023/09/19 08:15:27;;;;;;;11.27;4.60;;;17.20;99.90;;;;;;4194785;28;20033;-61
2023/09/19 08:17:29;;;;;;;9.02;4.95;;;17.10;99.90;;;;;;4194105;28;20472;-62
2023/09/19 08:19:31;;;;;;;7.68;5.70;;;17.10;99.90;;;;;;4195242;28;20114;-61
2023/09/19 08:21:32;;;;;;;7.10;4.78;;;17.00;99.90;;;;;;4193847;28;20827;-62
2023/09/19 08:23:33;;;;;;;8.65;5.68;;;16.90;99.90;;;;;;4194462;28;20102;-60
2023/09/19 08:25:35;;;;;;;12.75;6.47;;;16.90;99.90;;;;;;4193615;28;20094;-60
2023/09/19 08:27:36;;;;;;;10.13;5.68;;;16.90;99.90;;;;;;4195580;28;20032;-62
2023/09/19 08:29:37;;;;;;;11.02;6.57;;;16.90;99.90;;;;;;4194476;28;20086;-60
2023/09/19 08:31:38;;;;;;;11.73;5.65;;;16.90;99.90;;;;;;4195829;28;20050;-61
2023/09/19 08:33:40;;;;;;;6.78;5.65;;;16.80;99.90;;;;;;4194456;28;20052;-58
2023/09/19 08:35:45;;;;;;;10.48;6.43;;;16.80;99.90;;;;;;4195580;28;20029;-61
2023/09/19 08:37:46;;;;;;;12.38;6.90;;;16.80;99.90;;;;;;4194444;28;20041;-60
2023/09/19 08:39:47;;;;;;;10.90;7.65;;;16.80;99.90;;;;;;4193734;28;20094;-62
2023/09/19 08:41:48;;;;;;;14.05;7.38;;;16.70;99.90;;;;;;4194208;28;20451;-59
2023/09/19 08:43:50;;;;;;;8.50;6.00;;;16.70;99.90;;;;;;4194427;28;20090;-60
2023/09/19 08:46:06;;;;;;;11.88;7.13;;;16.70;99.90;;;;;;4195445;28;20427;-62
2023/09/19 08:48:29;;;;;;;11.90;7.18;;;16.70;99.90;;;;;;4194403;28;20033;-59
2023/09/19 08:50:30;;;;;;;13.68;6.63;;;16.70;99.90;;;;;;4194835;28;20506;-61
2023/09/19 08:52:42;;;;;;;11.52;7.90;;;16.70;99.90;;;;;;4194609;28;20078;-60
2023/09/19 08:54:45;;;;;;;16.75;9.88;;;16.70;99.90;;;;;;4193501;28;20090;-60
2023/09/19 08:56:47;;;;;;;16.90;9.45;;;16.70;99.90;;;;;;4193255;28;20108;-60
2023/09/19 08:58:58;;;;;;;15.48;9.23;;;16.70;99.90;;;;;;4193902;28;20385;-62
2023/09/19 09:01:01;;;;;;;15.27;9.30;;;16.70;99.90;;;;;;4192859;28;20064;-60
2023/09/19 09:03:06;;;;;;;13.10;7.53;;;16.70;99.90;;;;;;4193879;28;20045;-59
2023/09/19 09:05:10;;;;;;;17.30;9.88;;;16.80;99.90;;;;;;4193225;28;20040;-59
2023/09/19 09:07:12;;;;;;;17.65;10.00;;;16.80;99.90;;;;;;4195246;28;20086;-60
2023/09/19 09:09:17;;;;;;;11.27;6.75;;;16.80;99.90;;;;;;4193817;28;20097;-59
2023/09/19 09:11:19;;;;;;;10.82;5.60;;;16.90;99.90;;;;;;4194726;28;20086;-60
2023/09/19 09:13:21;;;;;;;9.23;6.43;;;16.90;99.90;;;;;;4193713;28;20025;-59
2023/09/19 09:15:24;;;;;;;8.30;5.93;;;16.80;99.90;;;;;;4194008;28;20049;-59
2023/09/19 09:17:25;;;;;;;10.35;6.07;;;16.80;99.90;;;;;;4193941;28;20435;-60
2023/09/19 09:19:26;;;;;;;9.15;7.28;;;16.80;99.90;;;;;;4195039;28;20410;-61
2023/09/19 09:21:28;;;;;;;6.53;5.88;;;16.80;99.90;;;;;;4192990;28;20048;-59
2023/09/19 09:23:29;;;;;;;10.75;6.57;;;16.80;99.90;;;;;;4193545;28;20101;-61
2023/09/19 09:25:56;;;;;;;10.43;7.68;;;16.80;99.90;;;;;;4192957;28;20566;-61
2023/09/19 09:28:02;;;;;;;15.45;11.43;;;16.70;99.90;;;;;;4194303;28;20177;-61
2023/09/19 09:30:03;;;;;;;21.83;16.25;;;16.70;99.90;;;;;;4193042;28;20094;-61
2023/09/19 09:32:20;;;;;;;20.77;14.85;;;16.70;99.90;;;;;;4193927;28;20075;-61
2023/09/19 09:34:22;;;;;;;23.25;16.60;;;16.70;99.90;;;;;;4193754;28;20492;-60
2023/09/19 09:36:37;;;;;;;16.33;13.60;;;16.70;99.90;;;;;;4194976;28;20078;-61
2023/09/19 09:38:48;;;;;;;16.65;13.60;;;16.80;99.90;;;;;;4193268;28;20074;-61
2023/09/19 09:40:58;;;;;;;18.20;11.68;;;16.80;99.90;;;;;;4193657;28;20090;-60
2023/09/19 09:42:59;;;;;;;12.05;8.80;;;16.80;99.90;;;;;;4193446;28;20090;-61
2023/09/19 09:45:37;;;;;;;11.68;8.25;;;16.80;99.90;;;;;;4194177;28;20024;-62
2023/09/19 09:47:57;;;;;;;12.60;8.55;;;16.70;99.90;;;;;;4193225;28;20033;-61
2023/09/19 09:50:07;;;;;;;19.00;8.40;;;16.70;99.90;;;;;;4194414;28;20029;-61
2023/09/19 09:52:16;;;;;;;11.10;7.97;;;16.70;99.90;;;;;;4192260;28;20086;-60
2023/09/19 09:54:21;;;;;;;15.15;8.43;;;16.70;99.90;;;;;;4194134;28;20032;-61
2023/09/19 09:56:23;;;;;;;14.65;8.27;;;16.70;99.90;;;;;;4192941;28;20029;-60
2023/09/19 09:58:28;;;;;;;14.40;9.13;;;16.70;99.90;;;;;;4194198;28;20074;-61
2023/09/19 10:00:42;;;;;;;12.13;8.63;;;16.70;99.90;;;;;;4193182;28;20082;-62
2023/09/19 10:02:46;;;;;;;10.52;7.50;;;16.60;99.90;;;;;;4193345;28;20102;-61
2023/09/19 10:07:11;;;;;;;13.50;7.67;;;16.50;99.90;;;;;;4194631;28;20475;-62
2023/09/19 10:09:13;;;;;;;12.55;7.80;;;16.50;99.90;;;;;;4191765;28;20098;-62
2023/09/19 10:11:19;;;;;;;12.00;7.60;;;16.40;99.90;;;;;;4193630;28;20488;-60
2023/09/19 10:13:23;;;;;;;13.10;8.05;;;16.40;99.90;;;;;;4192848;28;20032;-60
2023/09/19 10:15:31;;;;;;;10.32;7.28;;;16.40;99.90;;;;;;4194007;28;20104;-59
2023/09/19 10:17:36;;;;;;;10.48;7.78;;;16.40;99.90;;;;;;4192270;28;20070;-60
2023/09/19 10:19:46;;;;;;;8.88;7.55;;;16.40;99.90;;;;;;4192902;28;20507;-60
2023/09/19 10:21:48;;;;;;;;;;;16.40;99.90;;;;;;4193411;28;20036;-61
2023/09/19 10:23:52;;;;;;;12.05;7.20;;;16.50;99.90;;;;;;4193188;28;20338;-60
2023/09/19 10:25:53;;;;;;;13.32;7.63;;;16.50;99.90;;;;;;4193138;28;20028;-60
2023/09/19 10:27:57;;;;;;;14.23;8.02;;;16.50;99.90;;;;;;4193259;28;20094;-60
2023/09/19 10:29:59;;;;;;;11.73;8.45;;;16.60;99.90;;;;;;4192561;28;20066;-60
2023/09/19 10:32:04;;;;;;;12.73;7.85;;;16.60;99.90;;;;;;4192221;28;20041;-61
2023/09/19 10:34:09;;;;;;;10.93;8.40;;;16.60;99.90;;;;;;4175504;28;20041;-60
2023/09/19 10:36:12;;;;;;;11.35;8.15;;;16.60;99.90;;;;;;4192342;28;20678;-61
2023/09/19 10:38:14;;;;;;;11.95;8.10;;;16.80;99.90;;;;;;4192593;28;20118;-61
2023/09/19 10:40:17;;;;;;;12.05;7.93;;;16.90;99.90;;;;;;4191976;28;20086;-60
2023/09/19 10:42:20;;;;;;;12.57;9.00;;;17.00;99.90;;;;;;4193743;28;20496;-61
2023/09/19 10:44:28;;;;;;;14.60;9.75;;;17.10;99.90;;;;;;4191566;28;20562;-59